createdAt,value
2023-02-07T07:58:37.677Z,100318.66
2023-02-07T08:01:05.910Z,100313.28
2023-02-07T08:03:33.262Z,100304.00
2023-02-07T08:06:00.673Z,100322.66
2023-02-07T08:08:28.012Z,100323.19
2023-02-07T08:10:55.395Z,100321.16
2023-02-07T08:13:23.367Z,100326.47
2023-02-07T08:15:51.716Z,100313.84
2023-02-07T08:18:19.007Z,100322.56
2023-02-07T08:20:48.425Z,100315.06
2023-02-07T08:23:15.905Z,100333.13
2023-02-07T08:25:43.976Z,100334.41
2023-02-07T08:28:11.524Z,100346.47
2023-02-07T08:30:39.232Z,100344.75
2023-02-07T08:33:06.771Z,100345.53
2023-02-07T08:35:34.196Z,100344.06
2023-02-07T08:38:01.533Z,100344.28
2023-02-07T08:40:29.868Z,100345.22
2023-02-07T08:42:57.500Z,100343.94
2023-02-07T08:45:25.031Z,100351.25
2023-02-07T08:47:52.619Z,100354.69
2023-02-07T08:50:20.404Z,100345.94
2023-02-07T08:52:47.686Z,100347.66
2023-02-07T08:55:15.137Z,100342.22
2023-02-07T08:57:42.455Z,100347.06
2023-02-07T09:00:11.449Z,100348.28
2023-02-07T09:02:38.990Z,100346.13
2023-02-07T09:05:07.234Z,100342.34
2023-02-07T09:07:34.571Z,100354.88
2023-02-07T09:10:02.883Z,100351.34
2023-02-07T09:12:31.204Z,100345.19
2023-02-07T09:14:58.537Z,100353.97
2023-02-07T09:17:26.109Z,100350.63
2023-02-07T09:19:53.483Z,100344.66
2023-02-07T09:22:20.850Z,100351.00
2023-02-07T09:24:48.166Z,100354.63
2023-02-07T09:27:15.532Z,100354.00
2023-02-07T09:29:43.342Z,100347.13
2023-02-07T09:32:10.654Z,100357.03
2023-02-07T09:34:37.969Z,100363.88
2023-02-07T09:37:05.414Z,100360.00
2023-02-07T09:39:35.872Z,100365.25
2023-02-07T09:42:42.983Z,100373.66
2023-02-07T09:45:24.467Z,100363.31
2023-02-07T09:48:04.341Z,100359.50
2023-02-07T09:50:41.667Z,100360.78
2023-02-07T09:53:27.259Z,100337.34
2023-02-07T09:56:01.660Z,100353.28
2023-02-07T09:59:21.118Z,100355.34
2023-02-07T10:01:59.205Z,100354.66
2023-02-07T10:04:39.577Z,100364.75
2023-02-07T10:07:13.252Z,100346.63
2023-02-07T10:09:45.215Z,100348.56
2023-02-07T10:13:08.488Z,100369.09
2023-02-07T10:16:11.979Z,100369.75
2023-02-07T10:19:11.350Z,100363.06
2023-02-07T10:22:44.248Z,100384.63
2023-02-07T10:25:44.628Z,100383.16
2023-02-07T10:28:14.866Z,100382.47
2023-02-07T10:30:53.093Z,100376.41
2023-02-07T10:33:37.199Z,100376.78
2023-02-07T10:36:14.946Z,100388.81
2023-02-07T10:39:13.170Z,100381.38
2023-02-07T10:41:44.818Z,100383.00
2023-02-07T10:44:20.540Z,100386.78
2023-02-07T10:47:07.110Z,100380.47
2023-02-07T10:49:38.140Z,100387.72
2023-02-07T10:52:44.755Z,100368.00
2023-02-07T10:55:18.352Z,100374.53
2023-02-07T10:58:02.600Z,100384.03
2023-02-07T11:00:34.463Z,100394.84
2023-02-07T11:03:13.352Z,100394.97
2023-02-07T11:05:54.425Z,100392.09
2023-02-07T11:08:35.335Z,100394.63
2023-02-07T11:11:40.733Z,100397.72
2023-02-07T11:14:16.557Z,100389.50
2023-02-07T11:16:45.658Z,100386.75
2023-02-07T11:19:22.993Z,100382.00
2023-02-07T11:21:54.278Z,100378.19
2023-02-07T11:24:35.766Z,100379.16
2023-02-07T11:27:19.402Z,100377.81
2023-02-07T11:30:08.064Z,100373.88
2023-02-07T11:32:38.379Z,100367.13
2023-02-07T11:35:09.576Z,100357.78
2023-02-07T11:38:06.254Z,100364.53
2023-02-07T11:40:50.601Z,100366.28
2023-02-07T11:43:22.148Z,100370.59
2023-02-07T11:46:05.732Z,100366.31
2023-02-07T11:48:40.169Z,100367.97
2023-02-07T11:51:15.227Z,100362.88
2023-02-07T11:53:51.547Z,100372.50
2023-02-07T11:56:39.519Z,100359.91
2023-02-07T11:59:22.297Z,100353.13
2023-02-07T12:02:26.275Z,100344.38
2023-02-07T12:04:57.078Z,100351.59
2023-02-07T12:07:52.873Z,100360.09
2023-02-07T12:10:40.977Z,100346.91
2023-02-07T12:13:37.113Z,100356.69
2023-02-07T12:16:18.027Z,100350.06
2023-02-07T12:19:01.677Z,100349.16
2023-02-07T12:22:18.292Z,100343.25
2023-02-07T12:25:17.846Z,100344.34
2023-02-07T12:27:51.850Z,100336.44
2023-02-07T12:30:46.142Z,100337.13
2023-02-07T12:33:42.009Z,100337.44
2023-02-07T12:36:36.355Z,100331.00
2023-02-07T12:39:54.748Z,100336.03
2023-02-07T12:42:43.258Z,100330.16
2023-02-07T12:45:36.339Z,100308.50
2023-02-07T12:49:03.155Z,100321.66
2023-02-07T12:52:16.027Z,100321.38
2023-02-07T12:55:33.205Z,100322.44
2023-02-07T12:58:43.031Z,100315.53
2023-02-07T13:02:06.614Z,100314.47
2023-02-07T13:05:34.904Z,100314.44
2023-02-07T13:09:11.765Z,100320.06
2023-02-07T13:12:03.952Z,100319.34
2023-02-07T13:14:56.859Z,100310.56
2023-02-07T13:18:07.943Z,100318.16
2023-02-07T13:21:01.178Z,100307.22
2023-02-07T13:23:39.080Z,100311.38
2023-02-07T13:26:31.583Z,100310.78
2023-02-07T13:29:14.771Z,100311.47
2023-02-07T13:32:00.252Z,100302.06
2023-02-07T13:34:40.704Z,100305.03
2023-02-07T13:37:17.051Z,100304.63
2023-02-07T13:40:33.141Z,100306.19
2023-02-07T13:43:31.123Z,100317.97
2023-02-07T13:46:27.177Z,100312.19
2023-02-07T13:49:22.229Z,100308.84
2023-02-07T13:52:45.092Z,100310.56
2023-02-07T13:55:39.535Z,100303.13
2023-02-07T13:58:54.287Z,100297.53
2023-02-07T14:01:32.573Z,100305.38
2023-02-07T14:04:12.880Z,100303.09
2023-02-07T14:07:02.940Z,100312.13
2023-02-07T14:09:46.883Z,100293.53
2023-02-07T14:12:31.525Z,100295.88
2023-02-07T14:15:31.070Z,100310.88
2023-02-07T14:18:06.747Z,100314.31
2023-02-07T14:20:38.128Z,100315.56
2023-02-07T14:23:19.675Z,100316.19
2023-02-07T14:25:47.517Z,100314.78
2023-02-07T14:28:39.476Z,100309.63
2023-02-07T14:31:24.353Z,100312.44
2023-02-07T14:34:15.618Z,100308.91
2023-02-07T14:36:43.184Z,100307.41
2023-02-07T14:39:19.144Z,100309.59
2023-02-07T14:41:51.064Z,100316.09
2023-02-07T14:44:37.869Z,100305.00
2023-02-07T14:47:16.650Z,100299.19
2023-02-07T14:49:51.221Z,100308.53
2023-02-07T14:52:31.677Z,100303.81
2023-02-07T14:55:15.563Z,100302.75
2023-02-07T14:58:24.865Z,100291.88
2023-02-07T15:01:01.090Z,100294.81
2023-02-07T15:03:34.593Z,100298.59
2023-02-07T15:06:21.033Z,100292.63
2023-02-07T15:09:02.011Z,100294.59
2023-02-07T15:11:31.085Z,100301.09
2023-02-07T15:14:03.289Z,100296.84
2023-02-07T15:16:40.154Z,100293.25
2023-02-07T15:19:40.234Z,100293.13
2023-02-07T15:22:23.956Z,100297.63
2023-02-07T15:24:55.740Z,100294.59
2023-02-07T15:27:28.125Z,100292.78
2023-02-07T15:30:07.082Z,100291.41
2023-02-07T15:32:47.352Z,100290.94
2023-02-07T15:35:21.016Z,100303.91
2023-02-07T15:37:50.272Z,100297.59
2023-02-07T15:40:26.416Z,100312.91
2023-02-07T15:42:58.096Z,100311.34
2023-02-07T15:45:35.348Z,100298.88
2023-02-07T15:48:15.226Z,100305.94
2023-02-07T15:50:42.552Z,100297.78
2023-02-07T15:53:25.583Z,100301.19
2023-02-07T15:55:53.872Z,100304.09
2023-02-07T15:58:35.782Z,100311.66
2023-02-07T16:01:15.017Z,100304.44
2023-02-07T16:03:47.323Z,100292.28
2023-02-07T16:06:29.162Z,100292.00
2023-02-07T16:09:01.952Z,100301.38
2023-02-07T16:11:30.501Z,100295.53
2023-02-07T16:14:12.465Z,100299.13
2023-02-07T16:16:56.954Z,100305.75
2023-02-07T16:19:33.022Z,100311.25
2023-02-07T16:22:18.364Z,100301.88
2023-02-07T16:24:49.817Z,100297.59
2023-02-07T16:27:27.371Z,100301.13
2023-02-07T16:29:56.963Z,100302.13
2023-02-07T16:32:33.828Z,100303.38
2023-02-07T16:35:01.179Z,100309.28
2023-02-07T16:37:29.473Z,100306.94
2023-02-07T16:39:56.850Z,100311.88
2023-02-07T16:42:24.251Z,100306.88
2023-02-07T16:44:51.550Z,100305.63
2023-02-07T16:49:52.200Z,100315.25
2023-02-07T16:52:19.513Z,100311.84
2023-02-07T16:54:47.695Z,100313.97
2023-02-07T16:57:15.792Z,100318.19
2023-02-07T16:59:43.123Z,100327.78
2023-02-07T17:02:17.763Z,100327.84
2023-02-07T17:04:45.124Z,100326.22
2023-02-07T17:07:12.895Z,100330.22
2023-02-07T17:09:40.213Z,100336.75
2023-02-07T17:12:08.944Z,100338.41
2023-02-07T17:14:38.158Z,100336.66
2023-02-07T17:17:05.473Z,100348.84
2023-02-07T17:19:32.979Z,100345.06
2023-02-07T17:22:00.257Z,100351.63
2023-02-07T17:24:27.583Z,100348.09
2023-02-07T17:26:56.385Z,100344.31
2023-02-07T17:29:24.237Z,100347.28
2023-02-07T17:31:52.504Z,100347.13
2023-02-07T17:34:19.808Z,100349.66
2023-02-07T17:36:51.048Z,100350.72
2023-02-07T17:39:20.519Z,100326.63
2023-02-07T17:41:48.487Z,100352.63
2023-02-07T17:44:21.035Z,100361.13
2023-02-07T17:46:48.424Z,100365.03
2023-02-07T17:49:17.796Z,100356.25
2023-02-07T17:51:45.243Z,100364.75
2023-02-07T17:54:12.549Z,100362.56
2023-02-07T17:56:39.815Z,100352.72
2023-02-07T17:59:17.628Z,100359.25
2023-02-07T18:01:44.912Z,100371.50
2023-02-07T18:04:12.241Z,100375.53
2023-02-07T18:06:39.898Z,100378.50
2023-02-07T18:09:18.332Z,100376.94
2023-02-07T18:11:45.662Z,100384.53
2023-02-07T18:14:12.987Z,100389.38
2023-02-07T18:16:41.561Z,100386.47
2023-02-07T18:19:14.822Z,100385.59
2023-02-07T18:21:42.306Z,100390.78
2023-02-07T18:24:11.171Z,100391.59
2023-02-07T18:26:38.502Z,100387.78
2023-02-07T18:29:05.834Z,100385.09
2023-02-07T18:31:33.380Z,100387.84
2023-02-07T18:34:00.705Z,100386.97
2023-02-07T18:36:29.998Z,100384.56
2023-02-07T18:38:58.581Z,100385.41
2023-02-07T18:41:26.760Z,100381.31
2023-02-07T18:43:54.082Z,100377.47
2023-02-07T18:46:22.169Z,100378.84
2023-02-07T18:48:55.207Z,100373.66
2023-02-07T18:51:23.932Z,100360.81
2023-02-07T18:53:54.227Z,100367.13
2023-02-07T18:56:26.261Z,100364.09
2023-02-07T18:58:56.581Z,100364.97
2023-02-07T19:01:27.899Z,100369.59
2023-02-07T19:03:58.295Z,100360.59
2023-02-07T19:06:33.821Z,100363.84
2023-02-07T19:09:01.577Z,100379.44
2023-02-07T19:11:28.879Z,100383.50
2023-02-07T19:13:56.200Z,100384.84
2023-02-07T19:16:24.829Z,100381.63
2023-02-07T19:18:52.428Z,100386.41
2023-02-07T19:21:28.075Z,100367.53
2023-02-07T19:23:58.395Z,100371.16
2023-02-07T19:26:26.492Z,100377.22
2023-02-07T19:28:54.281Z,100366.31
2023-02-07T19:31:22.488Z,100370.34
2023-02-07T19:33:51.993Z,100366.03
2023-02-07T19:36:23.554Z,100367.06
2023-02-07T19:38:54.188Z,100367.31
2023-02-07T19:41:27.963Z,100365.88
2023-02-07T19:43:55.554Z,100370.88
2023-02-07T19:46:25.066Z,100361.59
2023-02-07T19:48:54.698Z,100363.78
2023-02-07T19:51:29.513Z,100375.50
2023-02-07T19:53:57.027Z,100370.31
2023-02-07T19:56:32.168Z,100371.28
2023-02-07T19:59:06.054Z,100361.09
2023-02-07T20:01:37.994Z,100350.63
2023-02-07T20:04:06.007Z,100356.25
2023-02-07T20:06:35.216Z,100365.06
2023-02-07T20:09:07.024Z,100367.06
2023-02-07T20:11:35.009Z,100363.72
2023-02-07T20:14:04.043Z,100361.78
2023-02-07T20:16:37.305Z,100355.94
2023-02-07T20:19:07.935Z,100359.06
